Terminal Aerodrome Forecast
Issued by NWS

Home | Current Version | Previous Version | Text Only | Print | Product List | Glossary On
Versions: 1 2 3 4 5 6 7 8 9 10 11 12 13 14
000
FTUS43 KOAX 172359
TAFCDR
TAF
KCDR 172359Z 1800/1824 36009KT P6SM VCSH BKN050 OVC080
     FM180300 34011KT 5SM -SN BKN025 OVC050
     FM180600 31010KT P6SM BKN050 OVC100
     FM180900 30015G25KT P6SM SCT250=

USA.gov is the U.S. government's official web portal to all federal, state and local government web resources and services.